createdAt,value
2023-02-19T00:01:23.458Z,97018.84
2023-02-19T00:03:57.559Z,97007.38
2023-02-19T00:06:32.937Z,97004.22
2023-02-19T00:09:06.599Z,97013.03
2023-02-19T00:11:40.410Z,97002.94
2023-02-19T00:14:17.025Z,97004.53
2023-02-19T00:16:51.379Z,96997.59
2023-02-19T00:19:24.321Z,96996.66
2023-02-19T00:21:57.388Z,96997.75
2023-02-19T00:24:30.340Z,97002.59
2023-02-19T00:27:03.315Z,96998.34
2023-02-19T00:29:36.180Z,96999.75
2023-02-19T00:32:10.692Z,97001.31
2023-02-19T00:34:43.748Z,97000.06
2023-02-19T00:37:16.757Z,96998.19
2023-02-19T00:39:49.923Z,96998.00
2023-02-19T00:42:22.895Z,96999.28
2023-02-19T00:44:55.729Z,96999.28
2023-02-19T00:47:30.639Z,96992.06
2023-02-19T00:50:03.566Z,96988.59
2023-02-19T00:52:36.522Z,96980.09
2023-02-19T00:55:09.622Z,96988.91
2023-02-19T00:57:42.555Z,96991.06
2023-02-19T01:00:15.741Z,96987.63
2023-02-19T01:02:50.357Z,96992.97
2023-02-19T01:05:23.255Z,96992.16
2023-02-19T01:07:56.186Z,96990.59
2023-02-19T01:10:29.085Z,96979.91
2023-02-19T01:13:02.155Z,96981.78
2023-02-19T01:15:35.583Z,96976.94
2023-02-19T01:18:09.922Z,96981.19
2023-02-19T01:20:44.877Z,96980.09
2023-02-19T01:23:17.807Z,96971.59
2023-02-19T01:25:50.762Z,96971.09
2023-02-19T01:28:23.681Z,96972.22
2023-02-19T01:30:56.644Z,96977.88
2023-02-19T01:33:31.302Z,96974.09
2023-02-19T01:36:05.098Z,96971.72
2023-02-19T01:38:38.042Z,96977.38
2023-02-19T01:41:15.705Z,96976.28
2023-02-19T01:43:58.787Z,96980.53
2023-02-19T01:46:34.074Z,96978.16
2023-02-19T01:49:11.906Z,96982.72
2023-02-19T01:51:48.282Z,96980.03
2023-02-19T01:54:25.902Z,96966.50
2023-02-19T01:57:00.645Z,96972.63
2023-02-19T01:59:34.973Z,96972.94
2023-02-19T02:02:08.041Z,96972.19
2023-02-19T02:04:42.715Z,96961.78
2023-02-19T02:07:29.690Z,96942.31
2023-02-19T02:10:21.600Z,96933.22
2023-02-19T02:12:59.235Z,96923.78
2023-02-19T02:15:42.982Z,96914.66
2023-02-19T02:18:26.057Z,96920.81
2023-02-19T02:21:19.934Z,96917.03
2023-02-19T02:24:17.692Z,96920.19
2023-02-19T02:27:05.501Z,96922.88
2023-02-19T02:30:11.183Z,96921.59
2023-02-19T02:32:53.601Z,96914.38
2023-02-19T02:35:31.325Z,96909.63
2023-02-19T02:38:09.205Z,96911.50
2023-02-19T02:40:45.319Z,96908.38
2023-02-19T02:43:18.218Z,96906.03
2023-02-19T02:45:52.755Z,96908.38
2023-02-19T02:48:31.349Z,96914.50
2023-02-19T02:51:11.777Z,96919.06
2023-02-19T02:54:07.082Z,96912.16
2023-02-19T02:56:42.099Z,96919.38
2023-02-19T02:59:17.542Z,96915.91
2023-02-19T03:02:12.243Z,96907.09
2023-02-19T03:05:10.898Z,96905.72
2023-02-19T03:07:49.182Z,96918.75
2023-02-19T03:10:26.215Z,96925.53
2023-02-19T03:13:19.868Z,96926.19
2023-02-19T03:16:15.237Z,96901.22
2023-02-19T03:19:11.790Z,96902.34
2023-02-19T03:21:47.462Z,96910.69
2023-02-19T03:24:42.410Z,96911.50
2023-02-19T03:27:20.110Z,96923.81
2023-02-19T03:29:56.092Z,96927.28
2023-02-19T03:32:32.442Z,96924.16
2023-02-19T03:35:10.737Z,96925.25
2023-02-19T03:37:48.163Z,96930.94
2023-02-19T03:40:24.069Z,96911.28
2023-02-19T03:43:05.380Z,96915.06
2023-02-19T03:45:47.661Z,96915.69
2023-02-19T03:48:28.847Z,96925.94
2023-02-19T03:51:19.182Z,96936.81
2023-02-19T03:53:59.686Z,96959.31
2023-02-19T03:56:38.571Z,96968.00
2023-02-19T03:59:16.535Z,96968.94
2023-02-19T04:01:55.282Z,96969.56
2023-02-19T04:04:33.952Z,96955.56
2023-02-19T04:07:08.685Z,96950.03
2023-02-19T04:09:46.590Z,96940.59
2023-02-19T04:12:21.623Z,96936.03
2023-02-19T04:15:00.779Z,96903.28
2023-02-19T04:17:38.663Z,96912.56
2023-02-19T04:20:13.418Z,96917.59
2023-02-19T04:22:48.506Z,96907.34
2023-02-19T04:25:22.054Z,96906.56
2023-02-19T04:27:55.222Z,96904.69
2023-02-19T04:30:28.372Z,96913.50
2023-02-19T04:33:01.442Z,96915.38
2023-02-19T04:35:34.374Z,96911.63
2023-02-19T04:38:08.772Z,96891.78
2023-02-19T04:40:41.778Z,96902.47
2023-02-19T04:43:14.727Z,96886.41
2023-02-19T04:45:47.885Z,96877.28
2023-02-19T04:48:21.164Z,96892.56
2023-02-19T04:50:54.097Z,96923.25
2023-02-19T04:53:28.427Z,96920.25
2023-02-19T04:56:07.566Z,96912.69
2023-02-19T04:58:41.552Z,96925.28
2023-02-19T05:01:15.236Z,96925.91
2023-02-19T05:03:48.185Z,96936.63
2023-02-19T05:06:21.206Z,96943.13
2023-02-19T05:08:55.541Z,96940.44
2023-02-19T05:11:28.500Z,96933.03
2023-02-19T05:14:01.603Z,96922.31
2023-02-19T05:16:34.601Z,96927.19
2023-02-19T05:19:07.620Z,96940.59
2023-02-19T05:21:40.747Z,96938.22
2023-02-19T05:24:15.075Z,96949.72
2023-02-19T05:26:48.342Z,96936.19
2023-02-19T05:29:21.190Z,96940.44
2023-02-19T05:31:54.177Z,96931.63
2023-02-19T05:34:27.202Z,96939.66
2023-02-19T05:37:00.130Z,96937.28
2023-02-19T05:39:34.379Z,96930.84
2023-02-19T05:42:07.471Z,96933.03
2023-02-19T05:44:40.345Z,96935.72
2023-02-19T05:47:13.208Z,96927.69
2023-02-19T05:49:46.126Z,96932.72
2023-02-19T05:52:19.086Z,96941.84
2023-02-19T05:54:53.487Z,96945.63
2023-02-19T05:57:26.516Z,96940.91
2023-02-19T05:59:59.357Z,96934.31
2023-02-19T06:02:32.537Z,96943.44
2023-02-19T06:05:06.539Z,96956.03
2023-02-19T06:07:40.136Z,96965.94
2023-02-19T06:10:14.617Z,96968.31
2023-02-19T06:12:47.599Z,96974.78
2023-02-19T06:15:20.581Z,96991.63
2023-02-19T06:17:53.440Z,96983.59
2023-02-19T06:20:26.512Z,96982.16
2023-02-19T06:22:59.543Z,96987.97
2023-02-19T06:25:33.891Z,96985.78
2023-02-19T06:28:06.948Z,96999.16
2023-02-19T06:30:39.799Z,96990.53
2023-02-19T06:33:12.696Z,96997.44
2023-02-19T06:35:45.541Z,96999.00
2023-02-19T06:38:18.391Z,97007.03
2023-02-19T06:40:52.830Z,97013.66
2023-02-19T06:43:25.701Z,97019.78
2023-02-19T06:45:59.403Z,97020.59
2023-02-19T06:48:33.590Z,97012.25
2023-02-19T06:51:06.876Z,97018.38
2023-02-19T06:53:39.821Z,97031.13
2023-02-19T06:56:26.012Z,97025.94
2023-02-19T06:59:00.792Z,97042.00
2023-02-19T07:01:35.573Z,97050.81
2023-02-19T07:04:08.889Z,97050.53
2023-02-19T07:06:42.045Z,97055.56
2023-02-19T07:09:14.927Z,97049.88
2023-02-19T07:11:49.285Z,97063.44
2023-02-19T07:14:22.380Z,97064.22
2023-02-19T07:16:55.315Z,97062.03
2023-02-19T07:19:28.282Z,97066.72
2023-02-19T07:22:01.310Z,97067.22
2023-02-19T07:24:34.205Z,97081.09
2023-02-19T07:27:08.531Z,97088.50
2023-02-19T07:29:41.497Z,97083.91
2023-02-19T07:32:14.405Z,97086.25
2023-02-19T07:34:47.294Z,97096.34
2023-02-19T07:37:20.358Z,97108.78
2023-02-19T07:39:53.253Z,97120.00
2023-02-19T07:42:27.758Z,97120.16
2023-02-19T07:45:00.824Z,97119.84
2023-02-19T07:47:33.718Z,97120.31
2023-02-19T07:50:07.102Z,97116.22
2023-02-19T07:52:40.168Z,97115.28
2023-02-19T07:55:13.067Z,97136.53
2023-02-19T07:57:47.294Z,97128.97
2023-02-19T08:00:20.301Z,97131.00
2023-02-19T08:03:03.055Z,97134.66
2023-02-19T08:05:38.932Z,97126.78
2023-02-19T08:08:13.511Z,97144.56
2023-02-19T08:11:03.611Z,97135.91
2023-02-19T08:13:37.934Z,97144.88
2023-02-19T08:16:21.796Z,97153.88
2023-02-19T08:18:59.699Z,97151.66
2023-02-19T08:21:34.277Z,97149.16
2023-02-19T08:24:07.621Z,97159.25
2023-02-19T08:26:40.569Z,97162.88
2023-02-19T08:29:14.944Z,97168.38
2023-02-19T08:31:47.960Z,97165.84
2023-02-19T08:34:20.974Z,97172.16
2023-02-19T08:36:53.844Z,97181.13
2023-02-19T08:39:26.850Z,97185.06
2023-02-19T08:41:59.737Z,97185.72
2023-02-19T08:44:34.435Z,97177.81
2023-02-19T08:47:08.074Z,97187.91
2023-02-19T08:49:40.916Z,97191.06
2023-02-19T08:52:13.793Z,97186.94
2023-02-19T08:54:46.933Z,97183.16
2023-02-19T08:57:20.310Z,97185.19
2023-02-19T08:59:54.710Z,97191.81
2023-02-19T09:02:27.714Z,97185.00
2023-02-19T09:05:00.654Z,97180.13
2023-02-19T09:07:33.896Z,97185.97
2023-02-19T09:10:07.221Z,97184.84
2023-02-19T09:12:40.836Z,97188.78
2023-02-19T09:15:15.331Z,97198.09
2023-02-19T09:17:52.739Z,97188.31
2023-02-19T09:20:25.584Z,97193.66
2023-02-19T09:22:59.440Z,97189.53
2023-02-19T09:25:32.369Z,97196.16
2023-02-19T09:28:05.770Z,97202.31
2023-02-19T09:30:40.441Z,97203.13
2023-02-19T09:33:13.516Z,97205.00
2023-02-19T09:35:46.417Z,97197.59
2023-02-19T09:38:19.304Z,97205.66
2023-02-19T09:40:52.251Z,97200.94
2023-02-19T09:43:29.131Z,97214.34
2023-02-19T09:46:05.495Z,97209.78
2023-02-19T09:48:39.006Z,97202.66
2023-02-19T09:51:13.524Z,97214.50
2023-02-19T09:53:50.873Z,97215.63
2023-02-19T09:56:24.007Z,97218.28
2023-02-19T09:59:00.500Z,97222.09
2023-02-19T10:01:40.573Z,97208.66
2023-02-19T10:04:13.687Z,97215.47
2023-02-19T10:06:47.733Z,97212.50
2023-02-19T10:09:24.091Z,97209.94
2023-02-19T10:11:59.853Z,97209.94
2023-02-19T10:14:40.624Z,97199.81
2023-02-19T10:17:23.579Z,97202.31
2023-02-19T10:19:58.224Z,97197.88
2023-02-19T10:22:32.203Z,97205.44
2023-02-19T10:25:05.499Z,97208.41
2023-02-19T10:27:38.524Z,97200.66
2023-02-19T10:30:20.995Z,97215.63
2023-02-19T10:33:06.061Z,97211.47
2023-02-19T10:35:52.723Z,97208.75
2023-02-19T10:38:29.437Z,97211.50
2023-02-19T10:41:07.415Z,97211.28
2023-02-19T10:43:51.872Z,97206.28
2023-02-19T10:46:28.159Z,97216.81
2023-02-19T10:49:05.779Z,97219.56
2023-02-19T10:51:40.937Z,97221.84
2023-02-19T10:54:18.954Z,97218.44
2023-02-19T10:56:51.976Z,97229.91
2023-02-19T10:59:27.333Z,97207.97
2023-02-19T11:02:01.888Z,97209.84
2023-02-19T11:04:38.330Z,97215.13
2023-02-19T11:07:12.716Z,97205.38
2023-02-19T11:09:47.411Z,97212.59
2023-02-19T11:12:27.023Z,97210.59
2023-02-19T11:15:03.571Z,97218.91
2023-02-19T11:17:36.701Z,97213.75
2023-02-19T11:20:17.809Z,97214.56
2023-02-19T11:22:51.120Z,97201.31
2023-02-19T11:25:25.889Z,97205.13
2023-02-19T11:28:04.158Z,97202.41
2023-02-19T11:30:41.034Z,97198.16
2023-02-19T11:33:35.283Z,97200.09
2023-02-19T11:36:37.216Z,97197.25
2023-02-19T11:39:23.119Z,97191.94
2023-02-19T11:42:24.779Z,97201.16
2023-02-19T11:45:18.127Z,97192.53
2023-02-19T11:48:25.639Z,97190.28
2023-02-19T11:51:11.575Z,97193.41
2023-02-19T11:53:50.013Z,97196.56
2023-02-19T11:56:34.081Z,97187.06
2023-02-19T11:59:12.013Z,97184.13
2023-02-19T12:02:02.422Z,97180.09
2023-02-19T12:05:17.009Z,97179.84
2023-02-19T12:08:19.568Z,97177.03
2023-02-19T12:11:10.247Z,97177.03
2023-02-19T12:13:59.267Z,97173.69
2023-02-19T12:16:36.920Z,97169.22
2023-02-19T12:19:43.393Z,97161.22
2023-02-19T12:22:27.000Z,97156.75
2023-02-19T12:25:32.843Z,97157.88
2023-02-19T12:28:33.557Z,97156.75
2023-02-19T12:31:28.203Z,97151.34
2023-02-19T12:34:17.846Z,97149.09
2023-02-19T12:37:04.273Z,97145.28
2023-02-19T12:39:46.818Z,97151.13
2023-02-19T12:42:44.833Z,97152.03
2023-02-19T12:45:23.823Z,97159.31
2023-02-19T12:48:03.042Z,97169.41
2023-02-19T12:50:40.431Z,97169.41
2023-02-19T12:53:32.492Z,97173.47
2023-02-19T12:56:10.742Z,97172.69
2023-02-19T12:58:49.303Z,97171.97
2023-02-19T13:01:27.030Z,97171.31
2023-02-19T13:04:15.940Z,97171.44
2023-02-19T13:06:55.500Z,97171.53
2023-02-19T13:09:35.126Z,97181.31
2023-02-19T13:12:14.215Z,97184.44
2023-02-19T13:14:53.327Z,97186.81
2023-02-19T13:17:33.591Z,97182.22
2023-02-19T13:20:15.223Z,97173.78
2023-02-19T13:23:15.661Z,97170.31
2023-02-19T13:26:06.062Z,97179.63
2023-02-19T13:28:52.752Z,97176.59
2023-02-19T13:31:45.973Z,97176.25
2023-02-19T13:34:34.662Z,97179.31
2023-02-19T13:37:08.254Z,97184.91
2023-02-19T13:39:50.098Z,97179.84
2023-02-19T13:42:28.618Z,97181.50
2023-02-19T13:45:03.036Z,97174.69
2023-02-19T13:47:51.090Z,97154.34
2023-02-19T13:50:27.872Z,97145.97
2023-02-19T13:53:01.643Z,97151.34
2023-02-19T13:55:53.212Z,97169.19
2023-02-19T13:58:57.684Z,97176.25
2023-02-19T14:02:16.734Z,97166.16
2023-02-19T14:04:55.588Z,97150.69
2023-02-19T14:07:55.459Z,97159.50
2023-02-19T14:11:03.091Z,97171.06
2023-02-19T14:14:06.767Z,97162.34
2023-02-19T14:17:04.837Z,97155.50
2023-02-19T14:19:57.241Z,97161.69
2023-02-19T14:22:52.653Z,97164.78
2023-02-19T14:25:38.304Z,97156.28
2023-02-19T14:28:30.567Z,97167.06
2023-02-19T14:31:18.135Z,97173.91
2023-02-19T14:33:53.353Z,97177.16
2023-02-19T14:36:45.273Z,97173.66
2023-02-19T14:39:19.720Z,97170.38
2023-02-19T14:41:54.202Z,97178.47
2023-02-19T14:44:32.436Z,97160.31
2023-02-19T14:47:09.087Z,97155.13
2023-02-19T14:49:45.950Z,97167.56
2023-02-19T14:52:24.813Z,97157.03
2023-02-19T14:55:01.889Z,97153.78
2023-02-19T14:57:39.509Z,97149.34
2023-02-19T15:00:25.655Z,97148.41
2023-02-19T15:02:59.878Z,97153.56
2023-02-19T15:05:34.957Z,97141.91
2023-02-19T15:08:11.039Z,97148.28
2023-02-19T15:10:44.952Z,97157.34
2023-02-19T15:13:29.398Z,97159.25
2023-02-19T15:16:03.890Z,97158.31
2023-02-19T15:18:38.388Z,97157.09
2023-02-19T15:21:24.628Z,97151.72
2023-02-19T15:23:59.651Z,97166.63
2023-02-19T15:26:36.375Z,97168.84
2023-02-19T15:29:12.419Z,97186.78
2023-02-19T15:31:51.595Z,97194.69
2023-02-19T15:34:26.504Z,97201.88
2023-02-19T15:37:02.212Z,97203.63
2023-02-19T15:39:39.059Z,97198.09
2023-02-19T15:42:19.970Z,97207.16
2023-02-19T15:44:58.322Z,97208.50
2023-02-19T15:47:37.102Z,97209.44
2023-02-19T15:50:15.896Z,97211.69
2023-02-19T15:52:53.167Z,97213.78
2023-02-19T15:55:33.679Z,97219.00
2023-02-19T15:58:15.849Z,97217.31
2023-02-19T16:00:51.843Z,97225.22
2023-02-19T16:03:28.206Z,97223.19
2023-02-19T16:06:02.878Z,97219.91
2023-02-19T16:08:37.061Z,97223.25
2023-02-19T16:11:28.683Z,97227.84
2023-02-19T16:14:19.918Z,97229.28
2023-02-19T16:16:55.537Z,97231.84
2023-02-19T16:19:34.442Z,97232.16
2023-02-19T16:22:11.405Z,97228.19
2023-02-19T16:24:46.427Z,97233.38
2023-02-19T16:27:31.333Z,97237.22
2023-02-19T16:30:09.466Z,97241.31
2023-02-19T16:32:44.221Z,97251.91
2023-02-19T16:35:40.885Z,97243.06
2023-02-19T16:38:15.187Z,97251.78
2023-02-19T16:41:07.444Z,97245.16
2023-02-19T16:43:42.442Z,97238.53
2023-02-19T16:46:15.507Z,97239.19
2023-02-19T16:48:48.635Z,97241.41
2023-02-19T16:51:27.388Z,97247.09
2023-02-19T16:54:00.309Z,97258.03
2023-02-19T16:56:33.505Z,97258.66
2023-02-19T16:59:07.654Z,97265.91
2023-02-19T17:01:40.624Z,97273.81
2023-02-19T17:04:15.997Z,97281.72
2023-02-19T17:06:50.385Z,97278.56
2023-02-19T17:09:23.385Z,97286.16
2023-02-19T17:11:56.273Z,97295.66
2023-02-19T17:14:29.208Z,97301.03
2023-02-19T17:17:02.425Z,97308.13
2023-02-19T17:19:35.483Z,97301.47
2023-02-19T17:22:10.112Z,97299.13
2023-02-19T17:24:42.976Z,97302.44
2023-02-19T17:27:15.964Z,97298.50
2023-02-19T17:29:48.838Z,97293.75
2023-02-19T17:32:21.838Z,97297.88
2023-02-19T17:34:54.971Z,97297.41
2023-02-19T17:37:29.299Z,97306.56
2023-02-19T17:40:02.252Z,97303.41
2023-02-19T17:42:35.111Z,97302.94
2023-02-19T17:45:08.694Z,97301.69
2023-02-19T17:47:41.543Z,97295.84
2023-02-19T17:50:19.097Z,97302.31
2023-02-19T17:52:53.700Z,97304.50
2023-02-19T17:55:28.166Z,97305.94
2023-02-19T17:58:01.395Z,97299.31
2023-02-19T18:00:35.383Z,97290.78
2023-02-19T18:03:08.485Z,97290.34
2023-02-19T18:05:41.422Z,97291.44
2023-02-19T18:08:15.797Z,97312.91
2023-02-19T18:10:48.715Z,97310.84
2023-02-19T18:13:21.656Z,97303.41
2023-02-19T18:15:54.659Z,97311.47
2023-02-19T18:18:27.634Z,97312.09
2023-02-19T18:21:00.611Z,97312.41
2023-02-19T18:23:34.889Z,97314.31
2023-02-19T18:26:10.360Z,97329.94
2023-02-19T18:28:43.237Z,97322.19
2023-02-19T18:31:16.642Z,97329.00
2023-02-19T18:33:49.952Z,97337.34
2023-02-19T18:36:22.915Z,97339.84
2023-02-19T18:38:57.182Z,97344.44
2023-02-19T18:41:30.086Z,97345.53
2023-02-19T18:44:02.942Z,97343.50
2023-02-19T18:46:35.890Z,97339.53
2023-02-19T18:49:08.755Z,97347.56
2023-02-19T18:51:41.677Z,97355.94
2023-02-19T18:54:15.923Z,97364.75
2023-02-19T18:56:48.904Z,97364.28
2023-02-19T18:59:21.787Z,97365.41
2023-02-19T19:01:54.818Z,97359.53
2023-02-19T19:04:27.906Z,97361.72
2023-02-19T19:07:00.807Z,97352.59
2023-02-19T19:09:35.356Z,97357.16
2023-02-19T19:12:08.417Z,97361.72
2023-02-19T19:14:41.393Z,97356.38
2023-02-19T19:17:14.380Z,97349.13
2023-02-19T19:19:47.293Z,97357.94
2023-02-19T19:22:22.879Z,97359.84
2023-02-19T19:24:57.208Z,97368.38
2023-02-19T19:27:30.089Z,97363.31
2023-02-19T19:30:03.138Z,97371.03
2023-02-19T19:32:36.161Z,97363.00
2023-02-19T19:35:09.950Z,97351.78
2023-02-19T19:37:42.857Z,97361.72
2023-02-19T19:40:18.960Z,97363.31
2023-02-19T19:42:52.706Z,97355.88
2023-02-19T19:45:25.666Z,97359.34
2023-02-19T19:47:58.595Z,97358.56
2023-02-19T19:50:31.795Z,97360.44
2023-02-19T19:53:04.748Z,97362.34
2023-02-19T19:55:39.156Z,97364.22
2023-02-19T19:58:12.170Z,97360.75
2023-02-19T20:00:45.065Z,97365.34
2023-02-19T20:03:18.409Z,97366.47
2023-02-19T20:05:51.372Z,97362.19
2023-02-19T20:08:24.322Z,97356.03
2023-02-19T20:10:58.645Z,97355.72
2023-02-19T20:13:34.017Z,97355.25
2023-02-19T20:16:10.829Z,97367.84
2023-02-19T20:18:43.956Z,97375.41
2023-02-19T20:21:16.866Z,97380.78
2023-02-19T20:23:49.851Z,97389.91
2023-02-19T20:26:26.099Z,97385.66
2023-02-19T20:28:59.445Z,97390.56
2023-02-19T20:31:32.681Z,97391.66
2023-02-19T20:34:06.212Z,97395.91
2023-02-19T20:36:44.198Z,97396.72
2023-02-19T20:39:18.336Z,97395.44
2023-02-19T20:41:53.357Z,97394.34
2023-02-19T20:44:27.229Z,97396.53
2023-02-19T20:47:01.242Z,97399.50
2023-02-19T20:49:34.543Z,97393.66
2023-02-19T20:52:08.491Z,97404.88
2023-02-19T20:54:42.536Z,97414.00
2023-02-19T20:57:17.111Z,97402.50
2023-02-19T20:59:50.160Z,97404.72
2023-02-19T21:02:29.015Z,97401.25
2023-02-19T21:05:02.207Z,97405.03
2023-02-19T21:07:35.122Z,97414.94
2023-02-19T21:10:09.344Z,97411.19
2023-02-19T21:12:43.819Z,97418.72
2023-02-19T21:15:16.859Z,97419.53
2023-02-19T21:17:49.981Z,97427.88
2023-02-19T21:20:22.919Z,97422.00
2023-02-19T21:22:56.073Z,97416.66
2023-02-19T21:25:31.506Z,97413.97
2023-02-19T21:28:09.097Z,97412.72
2023-02-19T21:30:42.083Z,97402.31
2023-02-19T21:33:14.977Z,97398.03
2023-02-19T21:35:47.922Z,97403.41
2023-02-19T21:38:20.792Z,97398.03
2023-02-19T21:40:53.770Z,97401.81
2023-02-19T21:43:29.711Z,97400.72
2023-02-19T21:46:02.655Z,97408.28
2023-02-19T21:48:35.515Z,97409.38
2023-02-19T21:51:08.441Z,97412.84
2023-02-19T21:53:41.259Z,97412.06
2023-02-19T21:56:23.326Z,97416.31
2023-02-19T21:58:57.659Z,97411.56
2023-02-19T22:01:32.405Z,97415.03
2023-02-19T22:04:06.264Z,97412.19
2023-02-19T22:06:40.570Z,97414.09
2023-02-19T22:09:14.892Z,97417.84
2023-02-19T22:11:47.807Z,97415.47
2023-02-19T22:14:22.559Z,97415.97
2023-02-19T22:16:55.490Z,97418.47
2023-02-19T22:19:28.450Z,97429.97
2023-02-19T22:22:01.348Z,97426.81
2023-02-19T22:24:34.266Z,97436.75
2023-02-19T22:27:07.240Z,97438.66
2023-02-19T22:29:41.645Z,97446.34
2023-02-19T22:32:14.701Z,97438.66
2023-02-19T22:34:47.695Z,97437.06
2023-02-19T22:37:20.731Z,97433.59
2023-02-19T22:39:53.619Z,97424.75
2023-02-19T22:42:26.551Z,97430.41
2023-02-19T22:45:01.043Z,97433.09
2023-02-19T22:47:33.954Z,97436.06
2023-02-19T22:50:08.288Z,97445.22
2023-02-19T22:52:41.191Z,97434.78
2023-02-19T22:55:14.095Z,97414.94
2023-02-19T22:57:46.996Z,97417.97
2023-02-19T23:00:22.828Z,97411.47
2023-02-19T23:02:55.776Z,97411.03
2023-02-19T23:05:28.653Z,97402.19
2023-02-19T23:08:01.564Z,97413.22
2023-02-19T23:10:34.416Z,97406.25
2023-02-19T23:13:07.474Z,97418.06
2023-02-19T23:15:41.824Z,97418.06
2023-02-19T23:18:14.821Z,97426.09
2023-02-19T23:20:47.808Z,97437.91
2023-02-19T23:23:20.809Z,97440.91
2023-02-19T23:25:53.719Z,97440.09
2023-02-19T23:28:26.714Z,97430.50
2023-02-19T23:31:01.027Z,97437.44
2023-02-19T23:33:34.056Z,97442.03
2023-02-19T23:36:07.660Z,97443.91
2023-02-19T23:38:41.017Z,97443.13
2023-02-19T23:41:15.971Z,97444.50
2023-02-19T23:43:49.334Z,97439.16
2023-02-19T23:46:23.755Z,97436.97
2023-02-19T23:48:56.741Z,97438.84
2023-02-19T23:51:29.632Z,97439.94
2023-02-19T23:54:02.906Z,97437.56
2023-02-19T23:56:36.248Z,97439.94
2023-02-19T23:59:09.309Z,97434.88
